Olympic Champion — SYWD — position and weather

sailwx.info

Track history (hours):
 
Tides and Currents Weather Stations Pressure Air Temp Water Temp Dewpoint Dewpoint Depression Visibility Wind Speed Wind Dir Waves Ship Positions

Olympic Champion

Last reported at 2017-Apr-22 15:10 UTC. Time now 2017-Apr-24 19:16 UTC.
Position N 38°15' E 021°25'.

Length 204 m; draft 6.5 m.

Type: Ship. MMSI: 237280000.

Date/timePositionNaut miles runAvg speedWind from/ knotsBaromVisibWave heightAir tempDewpointWater temp
2017-Apr-22 15:10N 38°15' E 021°25'2 0.4
2017-Apr-22 10:09N 38°15' E 021°28'324.1
2017-Apr-22 10:01N 38°15' E 021°23'1223.9
2017-Apr-22 09:30N 38°16' E 021°08'  
2017-Apr-18 16:03N 38°17' E 021°05'123.8
2017-Apr-18 16:00N 38°16' E 021°06'1223.5
2017-Apr-18 15:30N 38°16' E 021°21'  
2017-Apr-13 10:36N 38°16' E 021°31'324.2
2017-Apr-13 10:29N 38°16' E 021°27'1123.7
2017-Apr-13 10:01N 38°16' E 021°13'2623.4
2017-Apr-13 08:54N 38°29' E 020°44'  
Track history (hours):
 
Tides and Currents Weather Stations Pressure Air Temp Water Temp Dewpoint Dewpoint Depression Visibility Wind Speed Wind Dir Waves Ship Positions

Olympic Champion

Last reported at 2017-Apr-22 15:10 UTC. Time now 2017-Apr-24 19:16 UTC.
Position N 38°15' E 021°25'.

Length 204 m; draft 6.5 m.

Type: Ship. MMSI: 237280000.

Date/timePositionNaut miles runAvg speedWind from/ knotsBaromVisibWave heightAir tempDewpointWater temp
2017-Apr-22 15:10N 38°15' E 021°25'2 0.4
2017-Apr-22 10:09N 38°15' E 021°28'324.1
2017-Apr-22 10:01N 38°15' E 021°23'1223.9
2017-Apr-22 09:30N 38°16' E 021°08'  
2017-Apr-18 16:03N 38°17' E 021°05'123.8
2017-Apr-18 16:00N 38°16' E 021°06'1223.5
2017-Apr-18 15:30N 38°16' E 021°21'  
2017-Apr-13 10:36N 38°16' E 021°31'324.2
2017-Apr-13 10:29N 38°16' E 021°27'1123.7
2017-Apr-13 10:01N 38°16' E 021°13'2623.4
2017-Apr-13 08:54N 38°29' E 020°44'  

Dump ship's entire track history